createdAt,value
2018-09-06T00:00:25.954Z,12.47
2018-09-06T00:02:54.912Z,12.53
2018-09-06T00:05:23.942Z,12.83
2018-09-06T00:07:52.877Z,13.20
2018-09-06T00:10:21.842Z,12.57
2018-09-06T00:12:50.819Z,12.90
2018-09-06T00:15:19.812Z,12.43
2018-09-06T00:17:48.765Z,13.20
2018-09-06T00:20:17.838Z,13.27
2018-09-06T00:22:46.778Z,12.63
2018-09-06T00:25:15.843Z,13.07
2018-09-06T00:27:44.810Z,13.00
2018-09-06T00:30:13.794Z,13.53
2018-09-06T00:32:42.886Z,13.47
2018-09-06T00:35:11.844Z,12.33
2018-09-06T00:37:41.107Z,13.37
2018-09-06T00:40:10.755Z,12.93
2018-09-06T00:42:40.226Z,12.60
2018-09-06T00:45:09.194Z,12.87
2018-09-06T00:47:38.132Z,13.50
2018-09-06T00:50:12.330Z,12.40
2018-09-06T00:52:41.292Z,12.87
2018-09-06T00:55:10.270Z,13.93
2018-09-06T00:57:39.213Z,13.63
2018-09-06T01:00:08.189Z,14.10
2018-09-06T01:02:37.155Z,13.53
2018-09-06T01:05:06.247Z,12.83
2018-09-06T01:07:35.180Z,13.60
2018-09-06T01:10:04.270Z,14.37
2018-09-06T01:12:33.193Z,13.10
2018-09-06T01:15:02.181Z,12.27
2018-09-06T01:17:31.097Z,14.03
2018-09-06T01:20:00.176Z,13.17
2018-09-06T01:22:29.111Z,13.60
2018-09-06T01:24:58.081Z,13.63
2018-09-06T01:27:26.998Z,12.60
2018-09-06T01:29:55.918Z,13.20
2018-09-06T01:32:24.882Z,14.13
2018-09-06T01:34:53.789Z,14.10
2018-09-06T01:37:22.769Z,14.20
2018-09-06T01:39:51.692Z,13.70
2018-09-06T01:42:20.685Z,14.37
2018-09-06T01:44:49.676Z,13.93
2018-09-06T01:47:18.776Z,14.27
2018-09-06T01:49:47.723Z,14.13
2018-09-06T01:52:16.681Z,14.57
2018-09-06T01:54:45.601Z,13.77
2018-09-06T01:57:14.536Z,13.33
2018-09-06T01:59:43.473Z,13.40
2018-09-06T02:02:12.468Z,13.47
2018-09-06T02:04:41.395Z,13.33
2018-09-06T02:07:10.365Z,14.07
2018-09-06T02:09:39.290Z,13.60
2018-09-06T02:12:08.241Z,13.80
2018-09-06T02:14:37.154Z,13.77
2018-09-06T02:17:06.238Z,13.47
2018-09-06T02:19:35.156Z,14.13
2018-09-06T02:22:04.210Z,14.57
2018-09-06T02:24:33.169Z,15.03
2018-09-06T02:27:02.116Z,13.73
2018-09-06T02:29:31.026Z,14.07
2018-09-06T02:32:00.031Z,13.47
2018-09-06T02:34:28.929Z,13.00
2018-09-06T02:36:58.494Z,12.97
2018-09-06T02:39:27.428Z,12.67
2018-09-06T02:41:56.389Z,13.50
2018-09-06T02:44:25.298Z,13.00
2018-09-06T02:46:54.236Z,13.63
2018-09-06T02:49:28.300Z,13.07
2018-09-06T02:51:57.257Z,13.27
2018-09-06T02:54:26.149Z,13.27
2018-09-06T02:56:55.072Z,14.37
2018-09-06T02:59:23.985Z,12.77
2018-09-06T03:01:52.961Z,13.10
2018-09-06T03:04:22.057Z,14.00
2018-09-06T03:06:50.997Z,13.80
2018-09-06T03:09:21.624Z,14.30
2018-09-06T03:11:54.335Z,13.60
2018-09-06T03:14:23.324Z,13.80
2018-09-06T03:16:52.280Z,13.43
2018-09-06T03:19:21.206Z,14.10
2018-09-06T03:21:50.190Z,14.00
2018-09-06T03:24:19.097Z,14.20
2018-09-06T03:26:48.024Z,13.47
2018-09-06T03:29:16.928Z,15.47
2018-09-06T03:31:45.868Z,15.10
2018-09-06T03:34:14.757Z,15.17
2018-09-06T03:36:43.707Z,13.80
2018-09-06T03:39:12.618Z,14.07
2018-09-06T03:41:41.549Z,15.07
2018-09-06T03:44:10.440Z,14.27
2018-09-06T03:46:39.457Z,14.50
2018-09-06T03:49:08.356Z,14.50
2018-09-06T03:51:37.307Z,13.73
2018-09-06T03:54:06.205Z,14.07
2018-09-06T03:56:35.137Z,14.73
2018-09-06T03:59:04.106Z,14.63
2018-09-06T04:01:33.116Z,13.93
2018-09-06T04:04:02.056Z,15.87
2018-09-06T04:06:30.960Z,14.70
2018-09-06T04:08:59.904Z,15.13
2018-09-06T04:11:28.906Z,15.10
2018-09-06T04:13:57.840Z,14.67
2018-09-06T04:16:26.734Z,14.73
2018-09-06T04:18:55.669Z,15.20
2018-09-06T04:21:24.605Z,14.70
2018-09-06T04:23:53.669Z,13.73
2018-09-06T04:26:22.585Z,14.13
2018-09-06T04:28:51.520Z,13.53
2018-09-06T04:31:20.504Z,14.47
2018-09-06T04:33:49.589Z,14.47
2018-09-06T04:36:18.554Z,13.77
2018-09-06T04:38:47.473Z,13.47
2018-09-06T04:41:16.375Z,13.17
2018-09-06T04:43:45.448Z,12.40
2018-09-06T04:46:14.318Z,13.27
2018-09-06T04:48:43.396Z,12.93
2018-09-06T04:51:12.410Z,13.20
2018-09-06T04:53:41.367Z,12.93
2018-09-06T04:56:10.278Z,11.63
2018-09-06T04:58:39.327Z,12.20
2018-09-06T05:01:08.224Z,12.60
2018-09-06T05:03:37.312Z,12.03
2018-09-06T05:06:06.221Z,13.00
2018-09-06T05:08:35.172Z,13.30
2018-09-06T05:11:04.072Z,11.80
2018-09-06T05:13:33.001Z,13.07
2018-09-06T05:16:02.033Z,11.67
2018-09-06T05:18:30.964Z,11.73
2018-09-06T05:20:59.993Z,12.57
2018-09-06T05:23:28.941Z,12.63
2018-09-06T05:25:57.849Z,12.73
2018-09-06T05:28:26.784Z,12.10
2018-09-06T05:30:55.747Z,10.73
2018-09-06T05:33:24.705Z,12.07
2018-09-06T05:35:53.751Z,11.40
2018-09-06T05:38:22.721Z,11.60
2018-09-06T05:40:51.684Z,11.93
2018-09-06T05:43:20.664Z,11.80
2018-09-06T05:45:49.584Z,12.40
2018-09-06T05:48:18.548Z,10.87
2018-09-06T05:50:47.456Z,11.77
2018-09-06T05:53:16.431Z,11.43
2018-09-06T05:55:45.413Z,11.47
2018-09-06T05:58:14.417Z,11.07
2018-09-06T06:00:44.885Z,12.47
2018-09-06T06:03:14.024Z,12.30
2018-09-06T06:05:42.928Z,11.43
2018-09-06T06:08:23.045Z,12.50
2018-09-06T06:10:51.996Z,10.80
2018-09-06T06:13:21.005Z,11.63
2018-09-06T06:15:49.972Z,11.90
2018-09-06T06:18:20.017Z,12.47
2018-09-06T06:20:48.928Z,12.60
2018-09-06T06:23:17.887Z,11.87
2018-09-06T06:25:46.792Z,11.80
2018-09-06T06:28:15.812Z,12.13
2018-09-06T06:30:44.710Z,13.60
2018-09-06T06:33:13.649Z,12.87
2018-09-06T06:35:42.548Z,12.33
2018-09-06T06:38:11.485Z,13.27
2018-09-06T06:40:40.384Z,14.00
2018-09-06T06:43:09.437Z,14.07
2018-09-06T06:45:38.409Z,13.97
2018-09-06T06:48:07.314Z,14.33
2018-09-06T06:50:36.325Z,14.20
2018-09-06T06:53:05.265Z,13.53
2018-09-06T06:55:34.204Z,14.10
2018-09-06T06:58:03.132Z,14.53
2018-09-06T07:00:36.225Z,14.90
2018-09-06T07:03:05.165Z,14.67
2018-09-06T07:05:34.102Z,14.60
2018-09-06T07:08:03.021Z,13.50
2018-09-06T07:10:31.967Z,16.60
2018-09-06T07:13:00.873Z,13.10
2018-09-06T07:15:29.818Z,12.40
2018-09-06T07:17:58.724Z,15.50
2018-09-06T07:20:27.653Z,12.80
2018-09-06T07:22:56.560Z,12.77
2018-09-06T07:25:25.559Z,13.10
2018-09-06T07:27:54.457Z,14.40
2018-09-06T07:30:23.410Z,14.57
2018-09-06T07:32:52.321Z,14.23
2018-09-06T07:35:21.338Z,14.70
2018-09-06T07:37:50.233Z,14.53
2018-09-06T07:40:19.160Z,14.90
2018-09-06T07:42:48.077Z,14.00
2018-09-06T07:45:17.009Z,13.47
2018-09-06T07:47:46.118Z,13.97
2018-09-06T07:50:15.074Z,13.23
2018-09-06T07:52:44.008Z,14.13
2018-09-06T07:55:12.961Z,12.97
2018-09-06T07:57:41.983Z,14.80
2018-09-06T08:00:10.918Z,11.13
2018-09-06T08:02:39.865Z,13.37
2018-09-06T08:05:08.882Z,13.63
2018-09-06T08:07:37.833Z,13.73
2018-09-06T08:10:06.948Z,12.67
2018-09-06T08:12:35.846Z,13.40
2018-09-06T08:15:06.233Z,13.47
2018-09-06T08:17:35.149Z,12.67
2018-09-06T08:20:04.952Z,11.23
2018-09-06T08:22:33.857Z,10.87
2018-09-06T08:25:03.756Z,12.30
2018-09-06T08:27:32.673Z,12.80
2018-09-06T08:30:01.627Z,14.03
2018-09-06T08:32:30.646Z,11.97
2018-09-06T08:34:59.577Z,11.80
2018-09-06T08:37:28.485Z,12.50
2018-09-06T08:39:57.432Z,11.37
2018-09-06T08:42:26.325Z,10.90
2018-09-06T08:44:55.297Z,11.27
2018-09-06T08:47:24.270Z,9.60
2018-09-06T08:49:53.197Z,9.37
2018-09-06T08:52:22.150Z,10.07
2018-09-06T08:54:51.077Z,10.67
2018-09-06T08:57:20.037Z,10.37
2018-09-06T08:59:49.020Z,11.47
2018-09-06T09:02:18.095Z,10.27
2018-09-06T09:04:47.280Z,10.47
2018-09-06T09:07:16.102Z,10.33
2018-09-06T09:09:45.013Z,8.60
2018-09-06T09:12:13.966Z,10.47
2018-09-06T09:14:42.853Z,9.00
2018-09-06T09:17:11.827Z,10.77
2018-09-06T09:19:40.741Z,10.87
2018-09-06T09:22:09.783Z,10.17
2018-09-06T09:24:38.637Z,10.17
2018-09-06T09:27:07.596Z,12.33
2018-09-06T09:29:36.581Z,10.53
2018-09-06T09:32:05.514Z,10.23
2018-09-06T09:34:34.448Z,10.23
2018-09-06T09:37:03.419Z,10.13
2018-09-06T09:39:32.328Z,9.17
2018-09-06T09:42:01.313Z,9.80
2018-09-06T09:44:30.263Z,9.23
2018-09-06T09:49:27.349Z,8.40
2018-09-06T09:51:56.345Z,9.63
2018-09-06T09:54:25.248Z,10.13
2018-09-06T09:56:54.239Z,9.97
2018-09-06T09:59:23.142Z,9.80
2018-09-06T10:01:57.344Z,8.97
2018-09-06T10:04:31.323Z,9.50
2018-09-06T10:07:05.388Z,9.17
2018-09-06T10:09:34.338Z,9.83
2018-09-06T10:12:03.462Z,10.03
2018-09-06T10:14:32.449Z,9.67
2018-09-06T10:17:01.410Z,9.67
2018-09-06T10:19:30.335Z,9.70
2018-09-06T10:21:59.347Z,8.70
2018-09-06T10:24:28.303Z,8.50
2018-09-06T10:26:57.332Z,9.93
2018-09-06T10:29:26.246Z,9.73
2018-09-06T10:31:55.196Z,8.93
2018-09-06T10:34:24.113Z,8.17
2018-09-06T10:36:53.055Z,8.47
2018-09-06T10:39:21.982Z,8.23
2018-09-06T10:41:51.000Z,8.87
2018-09-06T10:44:19.965Z,9.30
2018-09-06T10:46:49.396Z,9.13
2018-09-06T10:49:18.388Z,8.67
2018-09-06T10:51:47.344Z,8.77
2018-09-06T10:54:16.957Z,9.13
2018-09-06T10:56:45.913Z,8.13
2018-09-06T10:59:14.844Z,8.67
2018-09-06T11:01:43.915Z,8.47
2018-09-06T11:04:12.821Z,8.20
2018-09-06T11:06:41.884Z,7.97
2018-09-06T11:09:10.821Z,8.30
2018-09-06T11:11:39.728Z,9.30
2018-09-06T11:14:08.782Z,9.17
2018-09-06T11:16:37.785Z,9.10
2018-09-06T11:19:06.721Z,8.30
2018-09-06T11:21:35.697Z,8.47
2018-09-06T11:24:04.689Z,8.10
2018-09-06T11:26:33.597Z,7.87
2018-09-06T11:29:02.632Z,8.23
2018-09-06T11:31:31.509Z,7.73
2018-09-06T11:34:00.460Z,8.87
2018-09-06T11:36:29.348Z,7.93
2018-09-06T11:38:58.281Z,7.77
2018-09-06T11:41:27.177Z,7.30
2018-09-06T11:43:56.101Z,7.63
2018-09-06T11:46:25.060Z,7.97
2018-09-06T11:48:54.013Z,8.33
2018-09-06T11:51:23.001Z,7.93
2018-09-06T11:53:51.993Z,7.60
2018-09-06T11:56:20.904Z,7.37
2018-09-06T11:58:49.880Z,7.43
2018-09-06T12:01:18.889Z,7.30
2018-09-06T12:03:47.907Z,7.20
2018-09-06T12:06:16.824Z,6.93
2018-09-06T12:08:45.804Z,6.47
2018-09-06T12:11:14.696Z,7.17
2018-09-06T12:13:43.682Z,7.00
2018-09-06T12:16:12.562Z,6.80
2018-09-06T12:18:41.509Z,6.87
2018-09-06T12:21:10.415Z,7.37
2018-09-06T12:23:39.349Z,6.90
2018-09-06T12:26:08.265Z,6.43
2018-09-06T12:28:37.236Z,7.07
2018-09-06T12:31:06.277Z,6.70
2018-09-06T12:33:35.468Z,6.53
2018-09-06T12:36:04.436Z,7.23
2018-09-06T12:38:33.529Z,6.50
2018-09-06T12:41:02.470Z,6.37
2018-09-06T12:43:31.700Z,8.70
2018-09-06T12:46:00.602Z,7.13
2018-09-06T12:48:29.544Z,7.30
2018-09-06T12:50:58.453Z,7.57
2018-09-06T12:53:27.426Z,7.07
2018-09-06T12:55:56.489Z,6.57
2018-09-06T12:58:25.393Z,6.67
2018-09-06T13:00:54.600Z,7.00
2018-09-06T13:03:23.964Z,6.97
2018-09-06T13:05:52.902Z,6.37
2018-09-06T13:08:21.812Z,6.80
2018-09-06T13:10:50.902Z,7.07
2018-09-06T13:13:19.825Z,6.70
2018-09-06T13:15:48.764Z,7.83
2018-09-06T13:18:17.775Z,6.67
2018-09-06T13:20:46.725Z,6.57
2018-09-06T13:23:15.612Z,6.57
2018-09-06T13:25:44.656Z,6.80
2018-09-06T13:28:13.637Z,7.20
2018-09-06T13:30:42.622Z,6.20
2018-09-06T13:33:11.569Z,6.30
2018-09-06T13:35:40.508Z,6.80
2018-09-06T13:38:09.418Z,6.20
2018-09-06T13:40:38.416Z,7.03
2018-09-06T13:43:07.416Z,6.60
2018-09-06T13:45:36.342Z,6.83
2018-09-06T13:48:05.221Z,6.73
2018-09-06T13:50:34.144Z,6.40
2018-09-06T13:53:03.034Z,7.10
2018-09-06T13:55:32.075Z,6.93
2018-09-06T13:58:01.308Z,6.10
2018-09-06T14:00:30.331Z,6.30
2018-09-06T14:02:59.361Z,6.07
2018-09-06T14:05:28.293Z,5.70
2018-09-06T14:07:57.181Z,6.17
2018-09-06T14:10:26.109Z,6.17
2018-09-06T14:12:55.000Z,5.63
2018-09-06T14:15:23.932Z,6.30
2018-09-06T14:17:52.825Z,5.63
2018-09-06T14:20:21.743Z,5.70
2018-09-06T14:22:50.677Z,6.57
2018-09-06T14:25:19.645Z,5.53
2018-09-06T14:27:48.603Z,5.87
2018-09-06T14:30:17.581Z,6.10
2018-09-06T14:32:46.485Z,5.87
2018-09-06T14:35:15.469Z,6.03
2018-09-06T14:37:44.365Z,6.07
2018-09-06T14:40:13.325Z,6.93
2018-09-06T14:42:42.281Z,6.60
2018-09-06T14:45:11.309Z,7.57
2018-09-06T14:47:40.222Z,7.80
2018-09-06T14:50:09.161Z,7.10
2018-09-06T14:52:38.134Z,7.40
2018-09-06T14:55:07.638Z,7.37
2018-09-06T14:57:36.588Z,7.63
2018-09-06T15:00:06.177Z,7.40
2018-09-06T15:02:35.206Z,6.67
2018-09-06T15:05:05.973Z,10.73
2018-09-06T15:07:35.082Z,8.63
2018-09-06T15:10:04.708Z,9.13
2018-09-06T15:12:33.648Z,8.63
2018-09-06T15:15:02.843Z,10.13
2018-09-06T15:17:31.788Z,9.70
2018-09-06T15:20:00.893Z,8.37
2018-09-06T15:22:29.853Z,7.67
2018-09-06T15:24:58.848Z,6.97
2018-09-06T15:27:27.864Z,6.20
2018-09-06T15:29:56.769Z,6.70
2018-09-06T15:32:25.865Z,6.40
2018-09-06T15:34:54.776Z,6.60
2018-09-06T15:37:23.721Z,6.63
2018-09-06T15:39:52.621Z,6.87
2018-09-06T15:42:22.037Z,6.00
2018-09-06T15:44:50.976Z,6.27
2018-09-06T15:47:19.918Z,6.10
2018-09-06T15:49:48.876Z,5.87
2018-09-06T15:52:17.789Z,5.30
2018-09-06T15:54:46.853Z,5.50
2018-09-06T15:57:15.771Z,6.10
2018-09-06T15:59:44.740Z,5.73
2018-09-06T16:02:13.709Z,5.80
2018-09-06T16:04:42.622Z,6.17
2018-09-06T16:07:11.545Z,5.73
2018-09-06T16:09:40.470Z,6.33
2018-09-06T16:12:09.452Z,5.80
2018-09-06T16:14:38.348Z,6.30
2018-09-06T16:17:07.273Z,6.23
2018-09-06T16:19:36.165Z,5.93
2018-09-06T16:22:05.097Z,6.80
2018-09-06T16:24:33.987Z,6.70
2018-09-06T16:27:03.045Z,5.73
2018-09-06T16:29:31.953Z,5.90
2018-09-06T16:32:00.892Z,6.17
2018-09-06T16:34:29.929Z,5.60
2018-09-06T16:36:58.868Z,5.53
2018-09-06T16:39:27.781Z,5.57
2018-09-06T16:41:56.717Z,5.63
2018-09-06T16:44:25.647Z,7.97
2018-09-06T16:46:54.588Z,11.23
2018-09-06T16:49:23.497Z,15.70
2018-09-06T16:51:52.389Z,15.80
2018-09-06T16:54:22.372Z,15.43
2018-09-06T16:56:51.297Z,12.93
2018-09-06T16:59:20.293Z,11.87
2018-09-06T17:01:49.244Z,10.43
2018-09-06T17:04:18.214Z,9.13
2018-09-06T17:06:47.145Z,9.00
2018-09-06T17:09:16.114Z,8.07
2018-09-06T17:11:45.012Z,7.70
2018-09-06T17:14:13.983Z,7.50
2018-09-06T17:16:42.876Z,6.77
2018-09-06T17:19:11.824Z,6.77
2018-09-06T17:21:40.734Z,6.97
2018-09-06T17:24:09.693Z,7.00
2018-09-06T17:26:38.620Z,7.53
2018-09-06T17:29:07.640Z,6.43
2018-09-06T17:31:36.573Z,6.37
2018-09-06T17:34:05.521Z,6.80
2018-09-06T17:36:34.417Z,6.87
2018-09-06T17:39:05.779Z,6.83
2018-09-06T17:41:34.669Z,6.40
2018-09-06T17:44:03.633Z,6.40
2018-09-06T17:46:32.516Z,6.50
2018-09-06T17:49:01.445Z,6.60
2018-09-06T17:51:30.337Z,6.90
2018-09-06T17:53:59.280Z,7.20
2018-09-06T17:56:28.152Z,7.17
2018-09-06T17:58:57.169Z,6.63
2018-09-06T18:01:34.571Z,6.83
2018-09-06T18:04:04.161Z,6.67
2018-09-06T18:06:33.061Z,7.10
2018-09-06T18:09:01.996Z,6.70
2018-09-06T18:11:30.982Z,7.00
2018-09-06T18:13:59.908Z,6.30
2018-09-06T18:16:28.820Z,6.53
2018-09-06T18:18:57.741Z,6.23
2018-09-06T18:21:27.100Z,7.23
2018-09-06T18:23:56.737Z,6.53
2018-09-06T18:26:25.908Z,6.77
2018-09-06T18:28:54.840Z,6.60
2018-09-06T18:31:23.748Z,6.67
2018-09-06T18:33:52.723Z,6.30
2018-09-06T18:36:21.804Z,6.93
2018-09-06T18:38:51.193Z,6.93
2018-09-06T18:41:20.105Z,6.67
2018-09-06T18:43:49.112Z,7.67
2018-09-06T18:46:18.052Z,7.27
2018-09-06T18:48:46.990Z,6.90
2018-09-06T18:51:15.933Z,7.17
2018-09-06T18:53:44.842Z,6.80
2018-09-06T18:56:13.872Z,6.83
2018-09-06T18:58:42.777Z,6.83
2018-09-06T19:01:11.841Z,6.57
2018-09-06T19:03:40.801Z,6.93
2018-09-06T19:06:09.895Z,7.97
2018-09-06T19:08:38.793Z,7.70
2018-09-06T19:11:07.849Z,6.63
2018-09-06T19:13:36.732Z,7.00
2018-09-06T19:16:05.670Z,7.27
2018-09-06T19:18:34.647Z,7.20
2018-09-06T19:21:03.579Z,6.80
2018-09-06T19:23:32.504Z,7.40
2018-09-06T19:26:01.468Z,8.10
2018-09-06T19:28:30.412Z,7.03
2018-09-06T19:30:59.377Z,7.33
2018-09-06T19:33:28.285Z,7.37
2018-09-06T19:35:57.213Z,7.73
2018-09-06T19:38:26.211Z,8.83
2018-09-06T19:40:55.128Z,7.80
2018-09-06T19:43:24.012Z,7.90
2018-09-06T19:45:52.945Z,8.20
2018-09-06T19:48:21.863Z,7.27
2018-09-06T19:50:50.793Z,7.57
2018-09-06T19:53:19.680Z,7.67
2018-09-06T19:55:48.652Z,7.13
2018-09-06T19:58:17.548Z,7.70
2018-09-06T20:00:46.461Z,7.67
2018-09-06T20:03:15.431Z,7.37
2018-09-06T20:05:44.353Z,6.97
2018-09-06T20:08:13.374Z,6.03
2018-09-06T20:10:42.277Z,6.90
2018-09-06T20:13:11.261Z,6.30
2018-09-06T20:15:40.245Z,6.90
2018-09-06T20:18:09.192Z,6.13
2018-09-06T20:20:38.128Z,6.03
2018-09-06T20:23:07.113Z,6.03
2018-09-06T20:25:36.060Z,5.87
2018-09-06T20:28:05.301Z,5.00
2018-09-06T20:30:34.208Z,5.60
2018-09-06T20:33:03.393Z,5.23
2018-09-06T20:35:32.754Z,6.00
2018-09-06T20:38:01.653Z,5.03
2018-09-06T20:40:30.585Z,5.57
2018-09-06T20:42:59.528Z,4.97
2018-09-06T20:45:28.504Z,5.03
2018-09-06T20:47:57.445Z,5.20
2018-09-06T20:50:26.372Z,5.37
2018-09-06T20:52:55.296Z,5.10
2018-09-06T20:55:24.241Z,5.03
2018-09-06T20:57:53.209Z,5.70
2018-09-06T21:00:22.133Z,4.47
2018-09-06T21:02:51.195Z,4.93
2018-09-06T21:05:20.109Z,5.27
2018-09-06T21:07:49.070Z,5.37
2018-09-06T21:10:17.959Z,4.97
2018-09-06T21:12:46.917Z,5.40
2018-09-06T21:15:15.825Z,4.80
2018-09-06T21:17:44.748Z,5.03
2018-09-06T21:20:13.682Z,4.90
2018-09-06T21:22:42.672Z,4.70
2018-09-06T21:25:11.613Z,4.87
2018-09-06T21:27:41.000Z,4.73
2018-09-06T21:30:10.078Z,5.23
2018-09-06T21:32:38.948Z,5.40
2018-09-06T21:35:07.925Z,5.43
2018-09-06T21:37:36.958Z,5.60
2018-09-06T21:40:06.232Z,5.73
2018-09-06T21:42:35.150Z,5.07
2018-09-06T21:45:04.048Z,5.37
2018-09-06T21:47:33.053Z,5.57
2018-09-06T21:50:02.064Z,5.97
2018-09-06T21:52:30.994Z,5.67
2018-09-06T21:54:59.913Z,5.20
2018-09-06T21:57:28.936Z,5.83
2018-09-06T21:59:57.837Z,5.90
2018-09-06T22:02:32.216Z,5.50
2018-09-06T22:05:01.141Z,5.37
2018-09-06T22:07:30.164Z,5.90
2018-09-06T22:09:59.086Z,6.00
2018-09-06T22:12:28.021Z,6.03
2018-09-06T22:14:56.996Z,7.03
2018-09-06T22:17:25.941Z,6.30
2018-09-06T22:19:54.841Z,6.07
2018-09-06T22:22:23.780Z,5.70
2018-09-06T22:24:52.680Z,6.77
2018-09-06T22:27:21.635Z,6.30
2018-09-06T22:29:50.520Z,6.43
2018-09-06T22:32:19.461Z,6.00
2018-09-06T22:34:48.347Z,6.00
2018-09-06T22:37:17.276Z,5.53
2018-09-06T22:39:46.168Z,5.20
2018-09-06T22:42:15.566Z,6.13
2018-09-06T22:44:44.461Z,5.77
2018-09-06T22:47:13.610Z,5.43
2018-09-06T22:49:42.551Z,6.33
2018-09-06T22:52:12.307Z,6.17
2018-09-06T22:54:41.281Z,5.17
2018-09-06T22:57:10.265Z,5.80
2018-09-06T22:59:39.156Z,5.60
2018-09-06T23:02:08.124Z,5.60
2018-09-06T23:04:37.113Z,5.70
2018-09-06T23:07:06.200Z,5.93
2018-09-06T23:09:35.105Z,4.90
2018-09-06T23:12:04.040Z,5.83
2018-09-06T23:14:32.996Z,5.53
2018-09-06T23:17:01.936Z,5.50
2018-09-06T23:19:30.867Z,6.33
2018-09-06T23:21:59.814Z,5.37
2018-09-06T23:24:28.773Z,5.90
2018-09-06T23:26:57.709Z,5.63
2018-09-06T23:29:26.642Z,6.20
2018-09-06T23:31:55.537Z,6.07
2018-09-06T23:34:24.585Z,5.73
2018-09-06T23:36:53.472Z,5.30
2018-09-06T23:39:22.404Z,5.70
2018-09-06T23:41:51.297Z,6.17
2018-09-06T23:44:20.245Z,6.03
2018-09-06T23:46:49.229Z,5.70
2018-09-06T23:49:18.249Z,6.20
2018-09-06T23:51:47.144Z,5.80
2018-09-06T23:54:16.105Z,6.53
2018-09-06T23:56:45.017Z,6.13
2018-09-06T23:59:13.956Z,5.57
